sensor_id;sensor_type;location;lat;lon;timestamp;temperature;humidity
18712;DHT22;9485;49.386;8.674;2024-03-08T00:03:48;10.40;86.30
18712;DHT22;9485;49.386;8.674;2024-03-08T00:09:10;10.40;86.40
18712;DHT22;9485;49.386;8.674;2024-03-08T00:14:32;10.30;86.10
18712;DHT22;9485;49.386;8.674;2024-03-08T00:19:53;10.30;86.30
18712;DHT22;9485;49.386;8.674;2024-03-08T00:25:13;10.20;86.70
18712;DHT22;9485;49.386;8.674;2024-03-08T00:30:35;10.20;86.70
18712;DHT22;9485;49.386;8.674;2024-03-08T00:35:57;10.10;86.30
18712;DHT22;9485;49.386;8.674;2024-03-08T00:41:17;10.10;86.80
18712;DHT22;9485;49.386;8.674;2024-03-08T00:46:39;10.10;86.70
18712;DHT22;9485;49.386;8.674;2024-03-08T00:52:01;10.10;86.60
18712;DHT22;9485;49.386;8.674;2024-03-08T00:57:22;10.00;87.00
18712;DHT22;9485;49.386;8.674;2024-03-08T01:02:45;9.90;87.10
18712;DHT22;9485;49.386;8.674;2024-03-08T01:08:05;9.90;86.80
18712;DHT22;9485;49.386;8.674;2024-03-08T01:13:26;9.80;87.00
18712;DHT22;9485;49.386;8.674;2024-03-08T01:18:48;9.80;87.20
18712;DHT22;9485;49.386;8.674;2024-03-08T01:24:09;9.70;87.00
18712;DHT22;9485;49.386;8.674;2024-03-08T01:29:30;9.70;87.30
18712;DHT22;9485;49.386;8.674;2024-03-08T01:34:52;9.60;87.30
18712;DHT22;9485;49.386;8.674;2024-03-08T01:40:12;9.60;86.70
18712;DHT22;9485;49.386;8.674;2024-03-08T01:45:33;9.50;87.00
18712;DHT22;9485;49.386;8.674;2024-03-08T01:50:55;9.50;86.90
18712;DHT22;9485;49.386;8.674;2024-03-08T01:56:17;9.50;86.90
18712;DHT22;9485;49.386;8.674;2024-03-08T02:01:38;9.40;87.20
18712;DHT22;9485;49.386;8.674;2024-03-08T02:07:00;9.40;87.40
18712;DHT22;9485;49.386;8.674;2024-03-08T02:12:21;9.40;86.90
18712;DHT22;9485;49.386;8.674;2024-03-08T02:17:41;9.30;87.00
18712;DHT22;9485;49.386;8.674;2024-03-08T02:23:04;9.30;87.10
18712;DHT22;9485;49.386;8.674;2024-03-08T02:28:25;9.30;86.80
18712;DHT22;9485;49.386;8.674;2024-03-08T02:33:46;9.20;86.80
18712;DHT22;9485;49.386;8.674;2024-03-08T02:39:08;9.20;86.90
18712;DHT22;9485;49.386;8.674;2024-03-08T02:44:29;9.20;86.60
18712;DHT22;9485;49.386;8.674;2024-03-08T02:49:50;9.10;87.00
18712;DHT22;9485;49.386;8.674;2024-03-08T02:55:12;9.10;86.80
18712;DHT22;9485;49.386;8.674;2024-03-08T03:00:35;9.00;86.50
18712;DHT22;9485;49.386;8.674;2024-03-08T03:05:56;9.00;86.60
18712;DHT22;9485;49.386;8.674;2024-03-08T03:11:18;9.00;86.60
18712;DHT22;9485;49.386;8.674;2024-03-08T03:16:38;9.00;86.20
18712;DHT22;9485;49.386;8.674;2024-03-08T03:21:59;8.90;86.50
18712;DHT22;9485;49.386;8.674;2024-03-08T03:27:21;8.90;86.40
18712;DHT22;9485;49.386;8.674;2024-03-08T03:32:42;8.90;86.10
18712;DHT22;9485;49.386;8.674;2024-03-08T03:38:06;8.80;86.10
18712;DHT22;9485;49.386;8.674;2024-03-08T03:43:28;8.80;86.40
18712;DHT22;9485;49.386;8.674;2024-03-08T03:48:48;8.70;86.30
18712;DHT22;9485;49.386;8.674;2024-03-08T03:54:09;8.70;86.70
18712;DHT22;9485;49.386;8.674;2024-03-08T03:59:31;8.70;86.80
18712;DHT22;9485;49.386;8.674;2024-03-08T04:04:52;8.70;86.50
18712;DHT22;9485;49.386;8.674;2024-03-08T04:10:14;8.60;86.60
18712;DHT22;9485;49.386;8.674;2024-03-08T04:15:36;8.70;86.70
18712;DHT22;9485;49.386;8.674;2024-03-08T04:20:57;8.60;86.60
18712;DHT22;9485;49.386;8.674;2024-03-08T04:26:17;8.50;86.50
18712;DHT22;9485;49.386;8.674;2024-03-08T04:31:39;8.50;87.00
18712;DHT22;9485;49.386;8.674;2024-03-08T04:37:00;8.50;86.60
18712;DHT22;9485;49.386;8.674;2024-03-08T04:42:21;8.50;86.70
18712;DHT22;9485;49.386;8.674;2024-03-08T04:47:44;8.40;86.30
18712;DHT22;9485;49.386;8.674;2024-03-08T04:53:04;8.40;86.10
18712;DHT22;9485;49.386;8.674;2024-03-08T04:58:27;8.30;86.70
18712;DHT22;9485;49.386;8.674;2024-03-08T05:03:49;8.30;86.80
18712;DHT22;9485;49.386;8.674;2024-03-08T05:09:10;8.30;86.60
18712;DHT22;9485;49.386;8.674;2024-03-08T05:14:33;8.20;86.90
18712;DHT22;9485;49.386;8.674;2024-03-08T05:19:56;8.20;86.90
18712;DHT22;9485;49.386;8.674;2024-03-08T05:25:17;8.20;86.70
18712;DHT22;9485;49.386;8.674;2024-03-08T05:30:38;8.20;86.70
18712;DHT22;9485;49.386;8.674;2024-03-08T05:36:00;8.10;86.70
18712;DHT22;9485;49.386;8.674;2024-03-08T05:41:21;8.10;86.90
18712;DHT22;9485;49.386;8.674;2024-03-08T05:46:42;8.10;87.00
18712;DHT22;9485;49.386;8.674;2024-03-08T05:52:04;8.10;87.20
18712;DHT22;9485;49.386;8.674;2024-03-08T05:57:25;8.00;87.20
18712;DHT22;9485;49.386;8.674;2024-03-08T06:02:46;8.00;87.40
18712;DHT22;9485;49.386;8.674;2024-03-08T06:08:08;8.00;87.90
18712;DHT22;9485;49.386;8.674;2024-03-08T06:13:28;8.00;87.60
18712;DHT22;9485;49.386;8.674;2024-03-08T06:18:50;8.00;87.80
18712;DHT22;9485;49.386;8.674;2024-03-08T06:24:12;8.00;88.20
18712;DHT22;9485;49.386;8.674;2024-03-08T06:29:34;8.00;87.80
18712;DHT22;9485;49.386;8.674;2024-03-08T06:34:55;7.90;88.10
18712;DHT22;9485;49.386;8.674;2024-03-08T06:40:17;8.00;88.10
18712;DHT22;9485;49.386;8.674;2024-03-08T06:45:38;8.00;87.80
18712;DHT22;9485;49.386;8.674;2024-03-08T06:50:58;8.00;88.30
18712;DHT22;9485;49.386;8.674;2024-03-08T06:56:20;8.00;88.30
18712;DHT22;9485;49.386;8.674;2024-03-08T07:01:42;8.10;88.00
18712;DHT22;9485;49.386;8.674;2024-03-08T07:07:02;8.10;88.50
18712;DHT22;9485;49.386;8.674;2024-03-08T07:12:24;8.10;88.80
18712;DHT22;9485;49.386;8.674;2024-03-08T07:17:45;8.20;88.30
18712;DHT22;9485;49.386;8.674;2024-03-08T07:23:06;8.20;89.20
18712;DHT22;9485;49.386;8.674;2024-03-08T07:28:29;8.30;89.50
18712;DHT22;9485;49.386;8.674;2024-03-08T07:33:50;8.50;89.90
18712;DHT22;9485;49.386;8.674;2024-03-08T07:39:12;8.60;90.00
18712;DHT22;9485;49.386;8.674;2024-03-08T07:44:35;8.70;90.20
18712;DHT22;9485;49.386;8.674;2024-03-08T07:49:56;8.80;90.10
18712;DHT22;9485;49.386;8.674;2024-03-08T07:55:17;8.90;90.20
18712;DHT22;9485;49.386;8.674;2024-03-08T08:00:39;9.00;90.20
18712;DHT22;9485;49.386;8.674;2024-03-08T08:06:02;9.10;90.10
18712;DHT22;9485;49.386;8.674;2024-03-08T08:11:26;9.20;90.30
18712;DHT22;9485;49.386;8.674;2024-03-08T08:16:48;9.40;90.50
18712;DHT22;9485;49.386;8.674;2024-03-08T08:22:10;9.80;91.00
18712;DHT22;9485;49.386;8.674;2024-03-08T08:27:31;10.20;91.30
18712;DHT22;9485;49.386;8.674;2024-03-08T08:32:53;10.70;91.50
18712;DHT22;9485;49.386;8.674;2024-03-08T08:38:17;11.00;91.20
18712;DHT22;9485;49.386;8.674;2024-03-08T08:43:39;11.50;91.90
18712;DHT22;9485;49.386;8.674;2024-03-08T08:49:04;12.10;92.50
18712;DHT22;9485;49.386;8.674;2024-03-08T08:54:25;12.90;93.70
18712;DHT22;9485;49.386;8.674;2024-03-08T08:59:46;13.90;95.40
18712;DHT22;9485;49.386;8.674;2024-03-08T09:05:09;15.10;96.20
18712;DHT22;9485;49.386;8.674;2024-03-08T09:10:30;16.30;95.50
18712;DHT22;9485;49.386;8.674;2024-03-08T09:15:53;17.50;93.60
18712;DHT22;9485;49.386;8.674;2024-03-08T09:21:15;18.30;92.60
18712;DHT22;9485;49.386;8.674;2024-03-08T09:26:35;18.90;90.20
18712;DHT22;9485;49.386;8.674;2024-03-08T09:31:56;19.40;89.80
18712;DHT22;9485;49.386;8.674;2024-03-08T09:37:18;19.70;86.40
18712;DHT22;9485;49.386;8.674;2024-03-08T09:42:39;19.90;82.10
18712;DHT22;9485;49.386;8.674;2024-03-08T09:47:59;19.60;78.20
18712;DHT22;9485;49.386;8.674;2024-03-08T09:53:22;19.10;77.20
18712;DHT22;9485;49.386;8.674;2024-03-08T09:58:43;18.70;77.20
18712;DHT22;9485;49.386;8.674;2024-03-08T10:04:33;18.20;74.30
18712;DHT22;9485;49.386;8.674;2024-03-08T10:09:55;17.40;73.40
18712;DHT22;9485;49.386;8.674;2024-03-08T10:15:16;16.70;72.50
18712;DHT22;9485;49.386;8.674;2024-03-08T10:20:37;15.90;72.10
18712;DHT22;9485;49.386;8.674;2024-03-08T10:26:09;15.20;74.40
18712;DHT22;9485;49.386;8.674;2024-03-08T10:31:33;14.50;74.10
18712;DHT22;9485;49.386;8.674;2024-03-08T10:36:57;14.10;76.40
18712;DHT22;9485;49.386;8.674;2024-03-08T10:42:28;13.80;76.50
18712;DHT22;9485;49.386;8.674;2024-03-08T10:48:04;13.50;77.30
18712;DHT22;9485;49.386;8.674;2024-03-08T10:53:38;13.30;77.60
18712;DHT22;9485;49.386;8.674;2024-03-08T10:59:02;13.20;80.30
18712;DHT22;9485;49.386;8.674;2024-03-08T11:04:24;13.30;80.60
18712;DHT22;9485;49.386;8.674;2024-03-08T11:09:47;13.50;81.20
18712;DHT22;9485;49.386;8.674;2024-03-08T11:15:12;13.60;81.30
18712;DHT22;9485;49.386;8.674;2024-03-08T11:20:33;13.70;80.40
18712;DHT22;9485;49.386;8.674;2024-03-08T11:25:56;13.80;81.40
18712;DHT22;9485;49.386;8.674;2024-03-08T11:31:25;14.00;82.00
18712;DHT22;9485;49.386;8.674;2024-03-08T11:36:48;14.30;79.30
18712;DHT22;9485;49.386;8.674;2024-03-08T11:42:08;14.50;79.90
18712;DHT22;9485;49.386;8.674;2024-03-08T11:47:32;14.90;80.70
18712;DHT22;9485;49.386;8.674;2024-03-08T11:52:52;15.30;80.30
18712;DHT22;9485;49.386;8.674;2024-03-08T11:58:14;15.80;80.10
18712;DHT22;9485;49.386;8.674;2024-03-08T12:03:36;16.20;79.30
18712;DHT22;9485;49.386;8.674;2024-03-08T12:08:57;16.60;78.40
18712;DHT22;9485;49.386;8.674;2024-03-08T12:14:18;17.30;79.10
18712;DHT22;9485;49.386;8.674;2024-03-08T12:19:46;18.40;79.90
18712;DHT22;9485;49.386;8.674;2024-03-08T12:25:09;19.50;76.30
18712;DHT22;9485;49.386;8.674;2024-03-08T12:30:32;20.30;75.80
18712;DHT22;9485;49.386;8.674;2024-03-08T12:35:55;20.90;75.40
18712;DHT22;9485;49.386;8.674;2024-03-08T12:41:17;21.50;73.30
18712;DHT22;9485;49.386;8.674;2024-03-08T12:46:39;22.00;74.50
18712;DHT22;9485;49.386;8.674;2024-03-08T12:52:02;22.60;74.50
18712;DHT22;9485;49.386;8.674;2024-03-08T12:57:23;22.90;72.00
18712;DHT22;9485;49.386;8.674;2024-03-08T13:02:46;23.00;72.30
18712;DHT22;9485;49.386;8.674;2024-03-08T13:08:08;23.00;71.40
18712;DHT22;9485;49.386;8.674;2024-03-08T13:13:31;22.80;69.60
18712;DHT22;9485;49.386;8.674;2024-03-08T13:18:54;22.40;70.60
18712;DHT22;9485;49.386;8.674;2024-03-08T13:24:17;22.00;70.60
18712;DHT22;9485;49.386;8.674;2024-03-08T13:29:39;21.60;70.10
18712;DHT22;9485;49.386;8.674;2024-03-08T13:35:00;21.30;72.10
18712;DHT22;9485;49.386;8.674;2024-03-08T13:40:21;21.10;72.80
18712;DHT22;9485;49.386;8.674;2024-03-08T13:45:43;20.90;71.90
18712;DHT22;9485;49.386;8.674;2024-03-08T13:51:04;20.70;72.00
18712;DHT22;9485;49.386;8.674;2024-03-08T13:56:28;20.50;71.50
18712;DHT22;9485;49.386;8.674;2024-03-08T14:01:49;20.10;69.70
18712;DHT22;9485;49.386;8.674;2024-03-08T14:07:10;19.70;69.60
18712;DHT22;9485;49.386;8.674;2024-03-08T14:12:32;19.10;70.00
18712;DHT22;9485;49.386;8.674;2024-03-08T14:17:53;18.70;70.50
18712;DHT22;9485;49.386;8.674;2024-03-08T14:23:14;18.50;72.30
18712;DHT22;9485;49.386;8.674;2024-03-08T14:28:36;18.40;72.80
18712;DHT22;9485;49.386;8.674;2024-03-08T14:33:58;18.20;73.20
18712;DHT22;9485;49.386;8.674;2024-03-08T14:39:18;18.20;73.50
18712;DHT22;9485;49.386;8.674;2024-03-08T14:44:41;18.10;73.40
18712;DHT22;9485;49.386;8.674;2024-03-08T14:50:08;18.00;73.40
18712;DHT22;9485;49.386;8.674;2024-03-08T14:55:29;17.90;74.10
18712;DHT22;9485;49.386;8.674;2024-03-08T15:00:51;18.00;74.00
18712;DHT22;9485;49.386;8.674;2024-03-08T15:06:14;17.90;72.60
18712;DHT22;9485;49.386;8.674;2024-03-08T15:11:40;17.80;73.60
18712;DHT22;9485;49.386;8.674;2024-03-08T15:17:04;17.70;72.80
18712;DHT22;9485;49.386;8.674;2024-03-08T15:22:30;17.60;72.70
18712;DHT22;9485;49.386;8.674;2024-03-08T15:27:50;17.50;72.60
18712;DHT22;9485;49.386;8.674;2024-03-08T15:33:12;17.30;73.30
18712;DHT22;9485;49.386;8.674;2024-03-08T15:38:34;17.20;73.00
18712;DHT22;9485;49.386;8.674;2024-03-08T15:43:55;17.10;73.80
18712;DHT22;9485;49.386;8.674;2024-03-08T15:49:17;17.00;74.00
18712;DHT22;9485;49.386;8.674;2024-03-08T15:54:39;17.00;73.90
18712;DHT22;9485;49.386;8.674;2024-03-08T16:00:03;17.00;74.20
18712;DHT22;9485;49.386;8.674;2024-03-08T16:05:34;16.90;73.90
18712;DHT22;9485;49.386;8.674;2024-03-08T16:10:55;16.90;73.40
18712;DHT22;9485;49.386;8.674;2024-03-08T16:16:16;16.80;73.80
18712;DHT22;9485;49.386;8.674;2024-03-08T16:21:38;16.70;73.90
18712;DHT22;9485;49.386;8.674;2024-03-08T16:26:59;16.60;73.20
18712;DHT22;9485;49.386;8.674;2024-03-08T16:32:21;16.50;73.60
18712;DHT22;9485;49.386;8.674;2024-03-08T16:37:43;16.40;73.30
18712;DHT22;9485;49.386;8.674;2024-03-08T16:43:04;16.20;73.00
18712;DHT22;9485;49.386;8.674;2024-03-08T16:48:25;16.10;73.40
18712;DHT22;9485;49.386;8.674;2024-03-08T16:53:46;16.00;73.40
18712;DHT22;9485;49.386;8.674;2024-03-08T16:59:07;15.90;73.10
18712;DHT22;9485;49.386;8.674;2024-03-08T17:04:29;15.70;73.50
18712;DHT22;9485;49.386;8.674;2024-03-08T17:09:51;15.60;73.90
18712;DHT22;9485;49.386;8.674;2024-03-08T17:15:11;15.50;73.50
18712;DHT22;9485;49.386;8.674;2024-03-08T17:20:34;15.30;73.20
18712;DHT22;9485;49.386;8.674;2024-03-08T17:25:57;15.20;73.80
18712;DHT22;9485;49.386;8.674;2024-03-08T17:31:17;15.00;73.60
18712;DHT22;9485;49.386;8.674;2024-03-08T17:36:40;14.90;74.10
18712;DHT22;9485;49.386;8.674;2024-03-08T17:42:03;14.80;74.30
18712;DHT22;9485;49.386;8.674;2024-03-08T17:47:23;14.70;74.00
18712;DHT22;9485;49.386;8.674;2024-03-08T17:52:46;14.60;74.40
18712;DHT22;9485;49.386;8.674;2024-03-08T17:58:11;14.50;74.10
18712;DHT22;9485;49.386;8.674;2024-03-08T18:03:34;14.50;74.60
18712;DHT22;9485;49.386;8.674;2024-03-08T18:08:55;14.40;75.00
18712;DHT22;9485;49.386;8.674;2024-03-08T18:14:17;14.40;75.30
18712;DHT22;9485;49.386;8.674;2024-03-08T18:19:38;14.40;75.00
18712;DHT22;9485;49.386;8.674;2024-03-08T18:24:59;14.40;75.30
18712;DHT22;9485;49.386;8.674;2024-03-08T18:30:22;14.40;75.30
18712;DHT22;9485;49.386;8.674;2024-03-08T18:35:43;14.40;74.80
18712;DHT22;9485;49.386;8.674;2024-03-08T18:41:06;14.40;75.20
18712;DHT22;9485;49.386;8.674;2024-03-08T18:46:31;14.40;75.10
18712;DHT22;9485;49.386;8.674;2024-03-08T18:51:55;14.30;74.60
18712;DHT22;9485;49.386;8.674;2024-03-08T18:57:25;14.30;75.00
18712;DHT22;9485;49.386;8.674;2024-03-08T19:02:48;14.30;74.40
18712;DHT22;9485;49.386;8.674;2024-03-08T19:08:10;14.30;74.20
18712;DHT22;9485;49.386;8.674;2024-03-08T19:13:33;14.30;74.50
18712;DHT22;9485;49.386;8.674;2024-03-08T19:18:55;14.20;74.60
18712;DHT22;9485;49.386;8.674;2024-03-08T19:24:16;14.10;73.60
18712;DHT22;9485;49.386;8.674;2024-03-08T19:29:36;14.10;74.60
18712;DHT22;9485;49.386;8.674;2024-03-08T19:34:58;14.10;74.20
18712;DHT22;9485;49.386;8.674;2024-03-08T19:40:21;14.00;73.70
18712;DHT22;9485;49.386;8.674;2024-03-08T19:45:43;14.00;73.90
18712;DHT22;9485;49.386;8.674;2024-03-08T19:51:06;13.90;74.00
18712;DHT22;9485;49.386;8.674;2024-03-08T19:56:31;13.90;73.60
18712;DHT22;9485;49.386;8.674;2024-03-08T20:01:56;13.80;74.40
18712;DHT22;9485;49.386;8.674;2024-03-08T20:07:19;13.80;74.00
18712;DHT22;9485;49.386;8.674;2024-03-08T20:12:42;13.70;73.60
18712;DHT22;9485;49.386;8.674;2024-03-08T20:18:03;13.60;73.60
18712;DHT22;9485;49.386;8.674;2024-03-08T20:23:26;13.60;74.00
18712;DHT22;9485;49.386;8.674;2024-03-08T20:28:48;13.50;73.90
18712;DHT22;9485;49.386;8.674;2024-03-08T20:34:10;13.50;74.00
18712;DHT22;9485;49.386;8.674;2024-03-08T20:39:34;13.40;74.20
18712;DHT22;9485;49.386;8.674;2024-03-08T20:44:55;13.40;73.80
18712;DHT22;9485;49.386;8.674;2024-03-08T20:50:20;13.40;74.20
18712;DHT22;9485;49.386;8.674;2024-03-08T20:55:44;13.30;73.70
18712;DHT22;9485;49.386;8.674;2024-03-08T21:01:07;13.30;73.60
18712;DHT22;9485;49.386;8.674;2024-03-08T21:06:28;13.20;74.00
18712;DHT22;9485;49.386;8.674;2024-03-08T21:11:50;13.20;73.90
18712;DHT22;9485;49.386;8.674;2024-03-08T21:17:11;13.20;73.60
18712;DHT22;9485;49.386;8.674;2024-03-08T21:22:31;13.10;73.60
18712;DHT22;9485;49.386;8.674;2024-03-08T21:27:53;13.10;73.70
18712;DHT22;9485;49.386;8.674;2024-03-08T21:33:14;13.10;73.40
18712;DHT22;9485;49.386;8.674;2024-03-08T21:38:36;13.10;73.80
18712;DHT22;9485;49.386;8.674;2024-03-08T21:43:58;13.00;73.60
18712;DHT22;9485;49.386;8.674;2024-03-08T21:49:19;13.00;73.40
18712;DHT22;9485;49.386;8.674;2024-03-08T21:54:40;13.00;73.40
18712;DHT22;9485;49.386;8.674;2024-03-08T22:00:03;12.90;73.10
18712;DHT22;9485;49.386;8.674;2024-03-08T22:05:31;12.90;72.80
18712;DHT22;9485;49.386;8.674;2024-03-08T22:10:53;12.80;73.40
18712;DHT22;9485;49.386;8.674;2024-03-08T22:16:20;12.80;73.00
18712;DHT22;9485;49.386;8.674;2024-03-08T22:21:42;12.80;72.90
18712;DHT22;9485;49.386;8.674;2024-03-08T22:27:02;12.70;73.30
18712;DHT22;9485;49.386;8.674;2024-03-08T22:32:24;12.60;73.50
18712;DHT22;9485;49.386;8.674;2024-03-08T22:37:46;12.60;72.70
18712;DHT22;9485;49.386;8.674;2024-03-08T22:43:08;12.60;73.30
18712;DHT22;9485;49.386;8.674;2024-03-08T22:48:31;12.60;73.30
18712;DHT22;9485;49.386;8.674;2024-03-08T22:53:52;12.50;73.10
18712;DHT22;9485;49.386;8.674;2024-03-08T22:59:12;12.50;73.40
18712;DHT22;9485;49.386;8.674;2024-03-08T23:04:35;12.50;73.30
18712;DHT22;9485;49.386;8.674;2024-03-08T23:09:55;12.40;70.60
18712;DHT22;9485;49.386;8.674;2024-03-08T23:15:18;12.40;72.20
18712;DHT22;9485;49.386;8.674;2024-03-08T23:20:44;12.30;71.40
18712;DHT22;9485;49.386;8.674;2024-03-08T23:26:07;12.30;71.60
18712;DHT22;9485;49.386;8.674;2024-03-08T23:31:29;12.20;71.70
18712;DHT22;9485;49.386;8.674;2024-03-08T23:36:53;12.20;73.10
18712;DHT22;9485;49.386;8.674;2024-03-08T23:42:14;12.20;73.20
18712;DHT22;9485;49.386;8.674;2024-03-08T23:47:35;12.20;71.80
18712;DHT22;9485;49.386;8.674;2024-03-08T23:53:00;12.30;73.40
18712;DHT22;9485;49.386;8.674;2024-03-08T23:58:24;12.30;72.70
